createdAt,value
2019-05-12T00:00:18.390Z,16.71
2019-05-12T00:02:52.252Z,16.67
2019-05-12T00:05:27.749Z,16.66
2019-05-12T00:08:00.470Z,16.62
2019-05-12T00:10:33.732Z,16.57
2019-05-12T00:13:08.406Z,16.51
2019-05-12T00:15:42.485Z,16.44
2019-05-12T00:18:18.080Z,16.37
2019-05-12T00:20:51.303Z,16.29
2019-05-12T00:23:28.075Z,16.24
2019-05-12T00:25:59.492Z,16.11
2019-05-12T00:28:33.253Z,16.02
2019-05-12T00:31:08.368Z,15.97
2019-05-12T00:33:42.414Z,15.92
2019-05-12T00:36:18.578Z,15.82
2019-05-12T00:38:51.467Z,15.77
2019-05-12T00:41:25.254Z,15.76
2019-05-12T00:43:59.490Z,15.74
2019-05-12T00:46:33.359Z,15.73
2019-05-12T00:49:08.197Z,15.72
2019-05-12T00:51:41.565Z,15.67
2019-05-12T00:54:14.435Z,15.59
2019-05-12T00:56:48.158Z,15.58
2019-05-12T00:59:20.945Z,15.58
2019-05-12T01:01:54.330Z,15.56
2019-05-12T01:04:29.136Z,15.53
2019-05-12T01:07:03.155Z,15.49
2019-05-12T01:09:38.423Z,15.46
2019-05-12T01:12:12.540Z,15.41
2019-05-12T01:14:47.826Z,15.35
2019-05-12T01:17:21.700Z,15.31
2019-05-12T01:19:54.952Z,15.26
2019-05-12T01:22:28.754Z,15.24
2019-05-12T01:25:02.543Z,15.18
2019-05-12T01:27:37.877Z,15.12
2019-05-12T01:30:10.864Z,15.07
2019-05-12T01:32:43.759Z,15.03
2019-05-12T01:35:18.515Z,14.96
2019-05-12T01:37:52.870Z,14.92
2019-05-12T01:40:28.534Z,14.88
2019-05-12T01:43:01.773Z,14.85
2019-05-12T01:45:34.923Z,14.81
2019-05-12T01:48:09.167Z,14.76
2019-05-12T01:50:42.675Z,14.72
2019-05-12T01:53:15.144Z,14.70
2019-05-12T01:55:48.683Z,14.65
2019-05-12T01:58:22.040Z,14.61
2019-05-12T02:00:58.693Z,14.59
2019-05-12T02:03:31.579Z,14.58
2019-05-12T02:06:05.308Z,14.56
2019-05-12T02:08:47.594Z,14.54
2019-05-12T02:11:37.829Z,14.50
2019-05-12T02:14:10.898Z,14.46
2019-05-12T02:16:45.092Z,14.44
2019-05-12T02:19:18.741Z,14.43
2019-05-12T02:21:53.025Z,14.43
2019-05-12T02:24:30.463Z,14.42
2019-05-12T02:27:02.586Z,14.38
2019-05-12T02:29:38.361Z,14.35
2019-05-12T02:32:12.843Z,14.32
2019-05-12T02:34:47.597Z,14.29
2019-05-12T02:37:21.808Z,14.24
2019-05-12T02:39:55.796Z,14.23
2019-05-12T02:42:29.239Z,14.20
2019-05-12T02:45:05.562Z,14.19
2019-05-12T02:47:38.087Z,14.16
2019-05-12T02:50:14.507Z,14.14
2019-05-12T02:52:48.171Z,14.15
2019-05-12T02:55:25.632Z,14.12
2019-05-12T02:57:59.661Z,14.06
2019-05-12T03:00:36.690Z,14.03
2019-05-12T03:03:14.651Z,14.01
2019-05-12T03:05:54.740Z,13.99
2019-05-12T03:08:28.683Z,13.94
2019-05-12T03:11:05.963Z,13.90
2019-05-12T03:13:38.224Z,13.87
2019-05-12T03:16:14.692Z,13.88
2019-05-12T03:18:46.098Z,13.89
2019-05-12T03:21:19.470Z,13.89
2019-05-12T03:23:55.150Z,13.90
2019-05-12T03:26:28.709Z,13.89
2019-05-12T03:29:05.627Z,13.91
2019-05-12T03:31:40.992Z,13.93
2019-05-12T03:34:18.571Z,13.94
2019-05-12T03:36:51.337Z,13.91
2019-05-12T03:39:24.980Z,13.90
2019-05-12T03:41:58.419Z,13.89
2019-05-12T03:44:35.032Z,13.87
2019-05-12T03:47:06.810Z,13.85
2019-05-12T03:49:40.145Z,13.85
2019-05-12T03:52:15.246Z,13.84
2019-05-12T03:54:48.384Z,13.85
2019-05-12T03:57:21.625Z,13.85
2019-05-12T03:59:54.883Z,13.86
2019-05-12T04:02:28.626Z,13.87
2019-05-12T04:05:05.249Z,13.88
2019-05-12T04:07:38.297Z,13.90
2019-05-12T04:10:11.169Z,13.93
2019-05-12T04:12:44.957Z,13.94
2019-05-12T04:15:18.919Z,13.97
2019-05-12T04:17:54.329Z,13.99
2019-05-12T04:20:28.889Z,14.03
2019-05-12T04:23:06.014Z,14.08
2019-05-12T04:25:50.872Z,14.09
2019-05-12T04:28:15.027Z,14.02
2019-05-12T04:30:48.721Z,13.98
2019-05-12T04:33:25.441Z,13.99
2019-05-12T04:35:57.913Z,14.01
2019-05-12T04:38:30.346Z,13.95
2019-05-12T04:41:05.932Z,13.86
2019-05-12T04:43:38.592Z,13.77
2019-05-12T04:46:14.541Z,13.74
2019-05-12T04:48:48.330Z,13.75
2019-05-12T04:51:21.661Z,13.66
2019-05-12T04:53:55.111Z,13.63
2019-05-12T04:56:29.248Z,13.58
2019-05-12T04:59:05.021Z,13.57
2019-05-12T05:01:37.878Z,13.58
2019-05-12T05:04:11.695Z,13.66
2019-05-12T05:06:45.634Z,13.76
2019-05-12T05:09:19.912Z,13.88
2019-05-12T05:11:54.291Z,13.98
2019-05-12T05:14:27.903Z,13.96
2019-05-12T05:17:05.095Z,13.89
2019-05-12T05:19:36.786Z,13.77
2019-05-12T05:22:10.463Z,13.81
2019-05-12T05:24:44.375Z,13.92
2019-05-12T05:27:18.339Z,14.00
2019-05-12T05:29:54.354Z,14.05
2019-05-12T05:32:27.659Z,14.15
2019-05-12T05:35:03.353Z,14.21
2019-05-12T05:37:41.363Z,14.20
2019-05-12T05:40:14.083Z,14.25
2019-05-12T05:42:47.458Z,14.21
2019-05-12T05:45:24.155Z,14.36
2019-05-12T05:47:59.620Z,14.51
2019-05-12T05:50:30.992Z,14.67
2019-05-12T05:53:04.294Z,14.77
2019-05-12T05:55:37.781Z,14.84
2019-05-12T05:58:11.556Z,14.94
2019-05-12T06:00:45.299Z,15.01
2019-05-12T06:03:23.413Z,15.15
2019-05-12T06:05:53.517Z,15.27
2019-05-12T06:08:26.610Z,15.34
2019-05-12T06:11:00.479Z,15.39
2019-05-12T06:13:34.519Z,15.46
2019-05-12T06:16:13.753Z,15.53
2019-05-12T06:18:43.952Z,15.62
2019-05-12T06:21:18.570Z,15.63
2019-05-12T06:23:53.937Z,15.57
2019-05-12T06:26:32.488Z,15.62
2019-05-12T06:29:01.321Z,15.68
2019-05-12T06:31:36.021Z,15.73
2019-05-12T06:34:15.211Z,15.66
2019-05-12T06:36:45.584Z,15.50
2019-05-12T06:39:20.623Z,15.03
2019-05-12T06:41:56.704Z,14.96
2019-05-12T06:44:28.546Z,14.90
2019-05-12T06:47:06.899Z,14.96
2019-05-12T06:49:37.274Z,14.91
2019-05-12T06:52:10.503Z,14.69
2019-05-12T06:54:51.179Z,14.71
2019-05-12T06:57:25.080Z,14.66
2019-05-12T06:59:55.172Z,14.59
2019-05-12T07:02:30.280Z,14.47
2019-05-12T07:05:04.608Z,14.46
2019-05-12T07:07:42.197Z,14.35
2019-05-12T07:10:35.147Z,14.15
2019-05-12T07:12:59.029Z,14.18
2019-05-12T07:15:24.116Z,14.04
2019-05-12T07:18:04.246Z,14.11
2019-05-12T07:20:38.979Z,13.92
2019-05-12T07:23:14.216Z,13.96
2019-05-12T07:25:47.559Z,13.82
2019-05-12T07:28:23.550Z,13.70
2019-05-12T07:30:57.260Z,13.74
2019-05-12T07:33:35.170Z,13.64
2019-05-12T07:36:08.429Z,13.58
2019-05-12T07:38:43.995Z,13.69
2019-05-12T07:41:19.518Z,13.65
2019-05-12T07:43:56.776Z,13.68
2019-05-12T07:46:29.204Z,13.74
2019-05-12T07:49:03.918Z,13.60
2019-05-12T07:51:40.509Z,13.70
2019-05-12T07:54:14.305Z,13.77
2019-05-12T07:56:48.226Z,13.85
2019-05-12T07:59:21.077Z,13.86
2019-05-12T08:01:54.996Z,13.89
2019-05-12T08:04:31.685Z,13.86
2019-05-12T08:07:04.164Z,13.48
2019-05-12T08:09:38.538Z,12.95
2019-05-12T08:12:16.313Z,12.90
2019-05-12T08:14:45.765Z,12.70
2019-05-12T08:17:19.636Z,12.41
2019-05-12T08:19:53.610Z,12.15
2019-05-12T08:22:29.340Z,11.91
2019-05-12T08:25:01.248Z,11.94
2019-05-12T08:27:39.142Z,11.85
2019-05-12T08:30:10.269Z,11.67
2019-05-12T08:32:44.254Z,11.93
2019-05-12T08:35:25.569Z,11.89
2019-05-12T08:37:54.436Z,11.90
2019-05-12T08:40:27.185Z,12.07
2019-05-12T08:43:08.071Z,11.88
2019-05-12T08:45:37.347Z,11.77
2019-05-12T08:48:16.041Z,11.94
2019-05-12T08:50:45.986Z,11.98
2019-05-12T08:53:20.698Z,11.96
2019-05-12T08:55:53.897Z,12.12
2019-05-12T08:58:33.626Z,12.26
2019-05-12T09:01:04.402Z,12.13
2019-05-12T09:03:38.360Z,12.12
2019-05-12T09:06:15.491Z,12.15
2019-05-12T09:08:49.194Z,12.16
2019-05-12T09:11:21.262Z,12.11
2019-05-12T09:14:00.658Z,12.10
2019-05-12T09:16:29.523Z,12.19
2019-05-12T09:19:04.936Z,12.07
2019-05-12T09:21:38.705Z,11.77
2019-05-12T09:24:14.958Z,11.68
2019-05-12T09:26:47.413Z,11.62
2019-05-12T09:29:21.020Z,11.59
2019-05-12T09:31:59.252Z,11.59
2019-05-12T09:34:29.438Z,11.55
2019-05-12T09:37:06.142Z,11.53
2019-05-12T09:39:47.288Z,11.59
2019-05-12T09:42:19.341Z,11.66
2019-05-12T09:44:50.567Z,11.58
2019-05-12T09:47:27.575Z,11.76
2019-05-12T09:50:00.787Z,11.70
2019-05-12T09:52:33.928Z,11.68
2019-05-12T09:55:06.991Z,11.57
2019-05-12T09:57:42.963Z,11.56
2019-05-12T10:00:18.267Z,11.71
2019-05-12T10:02:59.368Z,11.72
2019-05-12T10:05:30.401Z,11.73
2019-05-12T10:08:04.499Z,11.90
2019-05-12T10:10:41.465Z,12.08
2019-05-12T10:13:15.190Z,12.27
2019-05-12T10:15:48.885Z,12.41
2019-05-12T10:18:24.359Z,12.42
2019-05-12T10:20:56.708Z,12.36
2019-05-12T10:23:30.586Z,12.37
2019-05-12T10:26:09.431Z,12.36
2019-05-12T10:28:43.728Z,12.33
2019-05-12T10:31:18.749Z,12.28
2019-05-12T10:33:57.154Z,12.26
2019-05-12T10:36:30.298Z,12.18
2019-05-12T10:39:04.260Z,12.12
2019-05-12T10:41:38.348Z,12.10
2019-05-12T10:44:10.385Z,12.07
2019-05-12T10:46:44.569Z,12.06
2019-05-12T10:49:19.220Z,12.09
2019-05-12T10:51:53.996Z,12.08
2019-05-12T10:54:26.562Z,12.09
2019-05-12T10:56:58.941Z,12.02
2019-05-12T10:59:38.266Z,12.00
2019-05-12T11:02:13.814Z,11.95
2019-05-12T11:04:46.293Z,11.95
2019-05-12T11:07:22.911Z,11.91
2019-05-12T11:09:54.431Z,11.91
2019-05-12T11:12:29.217Z,11.94
2019-05-12T11:15:06.789Z,11.93
2019-05-12T11:17:53.560Z,11.88
2019-05-12T11:20:27.024Z,11.87
2019-05-12T11:22:59.331Z,11.88
2019-05-12T11:25:34.013Z,11.87
2019-05-12T11:28:06.317Z,11.74
2019-05-12T11:30:39.591Z,11.68
2019-05-12T11:33:13.290Z,11.68
2019-05-12T11:35:47.088Z,11.73
2019-05-12T11:38:20.016Z,11.70
2019-05-12T11:40:53.817Z,11.72
2019-05-12T11:43:29.570Z,11.62
2019-05-12T11:46:01.818Z,11.69
2019-05-12T11:48:35.241Z,11.65
2019-05-12T11:51:08.672Z,11.76
2019-05-12T11:53:41.639Z,11.82
2019-05-12T11:56:14.822Z,11.81
2019-05-12T11:58:51.516Z,11.67
2019-05-12T12:01:24.651Z,11.63
2019-05-12T12:03:57.498Z,11.59
2019-05-12T12:06:30.385Z,11.53
2019-05-12T12:09:09.265Z,11.53
2019-05-12T12:11:43.224Z,11.45
2019-05-12T12:14:16.453Z,11.46
2019-05-12T12:16:50.315Z,11.47
2019-05-12T12:19:33.568Z,11.43
2019-05-12T12:21:59.807Z,11.42
2019-05-12T12:24:33.622Z,11.34
2019-05-12T12:27:06.939Z,11.38
2019-05-12T12:29:40.208Z,11.33
2019-05-12T12:32:18.536Z,11.32
2019-05-12T12:34:47.712Z,11.11
2019-05-12T12:37:24.443Z,11.09
2019-05-12T12:39:58.193Z,11.15
2019-05-12T12:42:35.409Z,11.12
2019-05-12T12:45:18.784Z,11.12
2019-05-12T12:47:53.931Z,11.14
2019-05-12T12:50:30.362Z,11.08
2019-05-12T12:53:00.497Z,11.02
2019-05-12T12:55:32.932Z,11.03
2019-05-12T12:58:05.407Z,10.97
2019-05-12T13:00:47.123Z,10.87
2019-05-12T13:03:14.390Z,10.89
2019-05-12T13:05:46.769Z,10.92
2019-05-12T13:08:21.593Z,10.95
2019-05-12T13:10:54.195Z,10.99
2019-05-12T13:13:28.521Z,10.94
2019-05-12T13:16:01.016Z,10.92
2019-05-12T13:18:36.352Z,10.85
2019-05-12T13:21:09.255Z,10.85
2019-05-12T13:23:42.284Z,10.83
2019-05-12T13:26:15.229Z,10.79
2019-05-12T13:28:53.152Z,10.77
2019-05-12T13:31:24.347Z,10.79
2019-05-12T13:33:57.464Z,10.80
2019-05-12T13:36:37.376Z,10.76
2019-05-12T13:39:11.545Z,10.68
2019-05-12T13:41:45.262Z,10.72
2019-05-12T13:44:17.885Z,10.70
2019-05-12T13:46:54.706Z,10.69
2019-05-12T13:49:30.008Z,10.70
2019-05-12T13:52:04.103Z,10.67
2019-05-12T13:54:37.398Z,10.68
2019-05-12T13:57:13.420Z,10.70
2019-05-12T13:59:47.997Z,10.70
2019-05-12T14:02:23.457Z,10.68
2019-05-12T14:05:00.463Z,10.61
2019-05-12T14:07:34.427Z,10.64
2019-05-12T14:10:06.661Z,10.50
2019-05-12T14:12:39.556Z,10.42
2019-05-12T14:15:14.174Z,10.38
2019-05-12T14:17:48.144Z,10.43
2019-05-12T14:20:20.848Z,10.39
2019-05-12T14:22:54.231Z,10.38
2019-05-12T14:25:30.757Z,10.35
2019-05-12T14:28:05.580Z,10.31
2019-05-12T14:30:41.281Z,10.23
2019-05-12T14:33:10.699Z,10.19
2019-05-12T14:35:46.018Z,10.11
2019-05-12T14:38:19.230Z,10.14
2019-05-12T14:40:53.642Z,10.16
2019-05-12T14:43:26.415Z,10.14
2019-05-12T14:46:04.939Z,10.12
2019-05-12T14:48:34.292Z,10.07
2019-05-12T14:51:07.515Z,10.11
2019-05-12T14:53:40.550Z,10.09
2019-05-12T14:56:14.101Z,10.10
2019-05-12T14:58:50.224Z,10.10
2019-05-12T15:01:23.692Z,10.02
2019-05-12T15:03:55.795Z,10.00
2019-05-12T15:06:29.573Z,10.05
2019-05-12T15:09:04.474Z,9.97
2019-05-12T15:11:36.484Z,9.96
2019-05-12T15:14:09.904Z,9.93
2019-05-12T15:16:44.714Z,9.97
2019-05-12T15:19:20.920Z,10.04
2019-05-12T15:21:53.617Z,10.01
2019-05-12T15:24:26.576Z,9.98
2019-05-12T15:27:00.815Z,10.00
2019-05-12T15:29:33.888Z,9.97
2019-05-12T15:32:06.123Z,9.91
2019-05-12T15:34:39.203Z,9.93
2019-05-12T15:37:12.872Z,9.98
2019-05-12T15:39:46.024Z,10.00
2019-05-12T15:42:19.004Z,10.00
2019-05-12T15:44:53.618Z,10.00
2019-05-12T15:47:29.577Z,9.99
2019-05-12T15:50:00.756Z,9.99
2019-05-12T15:52:38.330Z,10.01
2019-05-12T15:55:07.914Z,10.01
2019-05-12T15:57:40.032Z,10.05
2019-05-12T16:00:16.952Z,10.13
2019-05-12T16:02:48.864Z,10.20
2019-05-12T16:05:28.795Z,10.18
2019-05-12T16:07:57.510Z,10.24
2019-05-12T16:10:29.956Z,10.24
2019-05-12T16:13:02.291Z,10.26
2019-05-12T16:15:36.527Z,10.25
2019-05-12T16:18:10.213Z,10.28
2019-05-12T16:20:44.152Z,10.30
2019-05-12T16:23:24.960Z,10.32
2019-05-12T16:25:53.972Z,10.30
2019-05-12T16:28:26.670Z,10.32
2019-05-12T16:31:06.717Z,10.33
2019-05-12T16:33:36.030Z,10.34
2019-05-12T16:36:11.463Z,10.36
2019-05-12T16:38:44.533Z,10.32
2019-05-12T16:41:19.845Z,10.30
2019-05-12T16:43:53.746Z,10.27
2019-05-12T16:46:26.957Z,10.26
2019-05-12T16:49:00.308Z,10.28
2019-05-12T16:51:35.241Z,10.27
2019-05-12T16:54:08.313Z,10.31
2019-05-12T16:56:43.231Z,10.31
2019-05-12T16:59:21.691Z,10.34
2019-05-12T17:01:50.680Z,10.35
2019-05-12T17:04:23.930Z,10.39
2019-05-12T17:06:56.464Z,10.40
2019-05-12T17:09:28.936Z,10.42
2019-05-12T17:12:01.769Z,10.40
2019-05-12T17:14:36.617Z,10.43
2019-05-12T17:17:10.888Z,10.44
2019-05-12T17:19:44.379Z,10.44
2019-05-12T17:22:18.648Z,10.48
2019-05-12T17:24:53.785Z,10.42
2019-05-12T17:27:28.202Z,10.38
2019-05-12T17:30:04.318Z,10.35
2019-05-12T17:32:36.604Z,10.37
2019-05-12T17:35:10.863Z,10.34
2019-05-12T17:37:43.337Z,10.32
2019-05-12T17:40:19.978Z,10.31
2019-05-12T17:42:49.847Z,10.30
2019-05-12T17:45:23.572Z,10.26
2019-05-12T17:48:03.001Z,10.30
2019-05-12T17:50:31.431Z,10.30
2019-05-12T17:53:04.460Z,10.29
2019-05-12T17:55:42.698Z,10.33
2019-05-12T17:58:13.780Z,10.32
2019-05-12T18:00:51.522Z,10.33
2019-05-12T18:03:23.002Z,10.36
2019-05-12T18:05:54.692Z,10.33
2019-05-12T18:08:32.505Z,10.35
2019-05-12T18:11:03.695Z,10.34
2019-05-12T18:13:39.962Z,10.34
2019-05-12T18:16:20.754Z,10.33
2019-05-12T18:18:46.818Z,10.33
2019-05-12T18:21:22.406Z,10.33
2019-05-12T18:23:54.773Z,10.34
2019-05-12T18:26:27.650Z,10.35
2019-05-12T18:29:00.115Z,10.34
2019-05-12T18:31:33.452Z,10.34
2019-05-12T18:34:07.498Z,10.31
2019-05-12T18:36:40.420Z,10.31
2019-05-12T18:39:15.221Z,10.29
2019-05-12T18:41:48.081Z,10.30
2019-05-12T18:44:26.273Z,10.27
2019-05-12T18:46:56.242Z,10.26
2019-05-12T18:49:29.251Z,10.23
2019-05-12T18:52:03.891Z,10.21
2019-05-12T18:54:35.457Z,10.24
2019-05-12T18:57:08.312Z,10.27
2019-05-12T18:59:46.087Z,10.28
2019-05-12T19:02:22.816Z,10.29
2019-05-12T19:04:49.495Z,10.33
2019-05-12T19:07:35.893Z,10.31
2019-05-12T19:09:58.058Z,10.31
2019-05-12T19:12:35.220Z,10.32
2019-05-12T19:15:10.128Z,10.32
2019-05-12T19:17:43.564Z,10.31
2019-05-12T19:20:15.911Z,10.27
2019-05-12T19:22:57.332Z,10.27
2019-05-12T19:25:23.822Z,10.26
2019-05-12T19:28:06.074Z,10.25
2019-05-12T19:30:31.481Z,10.25
2019-05-12T19:33:06.532Z,10.26
2019-05-12T19:35:38.685Z,10.29
2019-05-12T19:38:15.029Z,10.30
2019-05-12T19:40:54.954Z,10.30
2019-05-12T19:43:23.717Z,10.30
2019-05-12T19:46:02.938Z,10.28
2019-05-12T19:48:35.151Z,10.30
2019-05-12T19:51:20.351Z,10.30
2019-05-12T19:53:39.453Z,10.29
2019-05-12T19:56:14.115Z,10.26
2019-05-12T19:58:47.142Z,10.26
2019-05-12T20:01:26.141Z,10.26
2019-05-12T20:03:57.994Z,10.26
2019-05-12T20:06:30.407Z,10.24
2019-05-12T20:09:08.232Z,10.25
2019-05-12T20:11:38.721Z,10.24
2019-05-12T20:14:19.058Z,10.24
2019-05-12T20:16:46.728Z,10.24
2019-05-12T20:19:25.516Z,10.22
2019-05-12T20:21:55.834Z,10.19
2019-05-12T20:24:29.794Z,10.08
2019-05-12T20:27:04.141Z,10.08
2019-05-12T20:29:38.019Z,10.06
2019-05-12T20:32:13.940Z,10.07
2019-05-12T20:34:52.084Z,10.07
2019-05-12T20:37:22.959Z,10.09
2019-05-12T20:40:02.129Z,10.07
2019-05-12T20:42:41.943Z,10.04
2019-05-12T20:45:08.436Z,10.03
2019-05-12T20:47:44.952Z,10.00
2019-05-12T20:50:17.626Z,10.00
2019-05-12T20:52:57.674Z,9.99
2019-05-12T20:55:25.075Z,10.01
2019-05-12T20:57:59.528Z,10.00
2019-05-12T21:00:39.022Z,10.02
2019-05-12T21:03:13.837Z,9.93
2019-05-12T21:05:50.537Z,9.96
2019-05-12T21:08:27.299Z,9.92
2019-05-12T21:11:01.128Z,9.92
2019-05-12T21:13:34.624Z,9.92
2019-05-12T21:16:16.431Z,9.93
2019-05-12T21:18:49.849Z,9.93
2019-05-12T21:21:27.612Z,9.93
2019-05-12T21:23:59.181Z,9.93
2019-05-12T21:26:48.480Z,9.91
2019-05-12T21:29:25.446Z,9.88
2019-05-12T21:32:02.909Z,9.86
2019-05-12T21:34:34.516Z,9.87
2019-05-12T21:37:07.492Z,9.86
2019-05-12T21:39:45.643Z,9.88
2019-05-12T21:42:15.403Z,9.87
2019-05-12T21:44:49.031Z,9.79
2019-05-12T21:47:24.297Z,9.79
2019-05-12T21:49:58.104Z,9.76
2019-05-12T21:52:39.032Z,9.72
2019-05-12T21:55:15.355Z,9.71
2019-05-12T21:57:44.099Z,9.67
2019-05-12T22:00:27.599Z,9.63
2019-05-12T22:03:02.606Z,9.62
2019-05-12T22:05:50.573Z,9.64
2019-05-12T22:08:17.576Z,9.62
2019-05-12T22:10:46.747Z,9.60
2019-05-12T22:13:21.020Z,9.62
2019-05-12T22:15:57.130Z,9.61
2019-05-12T22:18:30.105Z,9.59
2019-05-12T22:21:06.802Z,9.61
2019-05-12T22:23:42.970Z,9.60
2019-05-12T22:26:14.288Z,9.59
2019-05-12T22:28:50.922Z,9.59
2019-05-12T22:31:24.247Z,9.56
2019-05-12T22:33:58.380Z,9.53
2019-05-12T22:36:33.624Z,9.56
2019-05-12T22:39:09.249Z,9.56
2019-05-12T22:41:43.430Z,9.55
2019-05-12T22:44:20.904Z,9.53
2019-05-12T22:46:50.951Z,9.50
2019-05-12T22:49:25.374Z,9.48
2019-05-12T22:52:02.702Z,9.46
2019-05-12T22:54:34.680Z,9.44
2019-05-12T22:57:08.643Z,9.44
2019-05-12T22:59:44.835Z,9.39
2019-05-12T23:02:28.044Z,9.37
2019-05-12T23:04:55.000Z,9.37
2019-05-12T23:07:29.933Z,9.38
2019-05-12T23:10:06.939Z,9.40
2019-05-12T23:12:39.755Z,9.39
2019-05-12T23:15:14.073Z,9.40
2019-05-12T23:17:49.350Z,9.42
2019-05-12T23:20:25.521Z,9.41
2019-05-12T23:22:59.695Z,9.37
2019-05-12T23:25:33.777Z,9.36
2019-05-12T23:28:10.400Z,9.31
2019-05-12T23:30:48.471Z,9.27
2019-05-12T23:33:17.888Z,9.25
2019-05-12T23:35:53.558Z,9.23
2019-05-12T23:38:25.786Z,9.21
2019-05-12T23:40:59.162Z,9.21
2019-05-12T23:43:34.139Z,9.19
2019-05-12T23:46:08.171Z,9.19
2019-05-12T23:48:43.955Z,9.19
2019-05-12T23:51:17.529Z,9.16
2019-05-12T23:53:50.335Z,9.15
2019-05-12T23:56:23.590Z,9.16
2019-05-12T23:58:57.424Z,9.09
